createdAt,value
2023-05-19T00:01:20.733Z,4.30
2023-05-19T00:05:33.823Z,10.13
2023-05-19T00:09:47.031Z,10.60
2023-05-19T00:14:01.081Z,7.75
2023-05-19T00:18:14.370Z,6.55
2023-05-19T00:22:26.904Z,7.90
2023-05-19T00:26:39.370Z,9.90
2023-05-19T00:30:52.541Z,9.48
2023-05-19T00:35:05.302Z,4.35
2023-05-19T00:39:17.626Z,9.10
2023-05-19T00:43:34.669Z,9.93
2023-05-19T00:47:47.186Z,11.50
2023-05-19T00:52:01.842Z,13.15
2023-05-19T00:56:15.957Z,14.32
2023-05-19T01:00:28.606Z,12.23
2023-05-19T01:04:42.129Z,8.05
2023-05-19T01:08:54.824Z,6.85
2023-05-19T01:13:08.370Z,4.88
2023-05-19T01:17:27.501Z,6.05
2023-05-19T01:22:07.850Z,5.03
2023-05-19T01:26:35.327Z,5.93
2023-05-19T01:30:54.854Z,5.28
2023-05-19T01:35:09.729Z,6.85
2023-05-19T01:39:23.490Z,5.47
2023-05-19T01:43:36.500Z,5.60
2023-05-19T01:47:53.789Z,5.10
2023-05-19T01:52:07.492Z,4.55
2023-05-19T01:56:33.452Z,6.22
2023-05-19T02:00:54.399Z,2.95
2023-05-19T02:05:38.091Z,8.63
2023-05-19T02:10:06.464Z,6.22
2023-05-19T02:14:25.919Z,6.25
2023-05-19T02:18:38.330Z,3.95
2023-05-19T02:22:52.545Z,10.70
2023-05-19T02:27:05.303Z,3.53
2023-05-19T02:31:17.781Z,4.22
2023-05-19T02:35:30.294Z,4.35
2023-05-19T02:39:43.212Z,4.35
2023-05-19T02:43:56.053Z,4.45
2023-05-19T02:48:08.739Z,6.40
2023-05-19T02:52:21.440Z,5.07
2023-05-19T02:56:34.017Z,4.32
2023-05-19T03:00:46.526Z,3.63
2023-05-19T03:04:58.891Z,3.95
2023-05-19T03:09:13.465Z,4.88
2023-05-19T03:13:26.021Z,4.47
2023-05-19T03:17:39.659Z,4.93
2023-05-19T03:21:55.847Z,6.72
2023-05-19T03:26:08.350Z,4.68
2023-05-19T03:30:21.033Z,7.03
2023-05-19T03:34:45.272Z,9.35
2023-05-19T03:38:59.029Z,6.68
2023-05-19T03:43:11.680Z,3.67
2023-05-19T03:47:32.537Z,6.65
2023-05-19T03:51:53.401Z,4.93
2023-05-19T03:56:18.415Z,4.32
2023-05-19T04:00:31.246Z,3.97
2023-05-19T04:04:43.759Z,6.20
2023-05-19T04:08:57.330Z,3.65
2023-05-19T04:13:09.976Z,4.30
2023-05-19T04:17:26.617Z,5.20
2023-05-19T04:21:40.251Z,3.38
2023-05-19T04:25:54.467Z,5.65
2023-05-19T04:30:07.615Z,4.22
2023-05-19T04:34:20.909Z,7.18
2023-05-19T04:38:33.767Z,3.72
2023-05-19T04:42:47.081Z,3.58
2023-05-19T04:47:00.489Z,3.45
2023-05-19T04:51:14.651Z,6.55
2023-05-19T04:55:27.412Z,4.55
2023-05-19T04:59:42.455Z,3.67
2023-05-19T05:03:59.210Z,4.45
2023-05-19T05:08:12.404Z,7.65
2023-05-19T05:12:28.422Z,7.55
2023-05-19T05:16:41.259Z,4.70
2023-05-19T05:21:00.202Z,9.23
2023-05-19T05:25:13.779Z,5.20
2023-05-19T05:29:26.526Z,5.32
2023-05-19T05:33:39.865Z,7.47
2023-05-19T05:37:53.383Z,5.00
2023-05-19T05:42:06.152Z,3.60
2023-05-19T05:46:18.874Z,6.95
2023-05-19T05:50:31.916Z,6.30
2023-05-19T05:54:44.797Z,4.60
2023-05-19T05:58:58.045Z,6.55
2023-05-19T06:03:12.371Z,7.20
2023-05-19T06:07:24.926Z,5.43
2023-05-19T06:11:37.832Z,6.68
2023-05-19T06:15:52.675Z,6.07
2023-05-19T06:20:10.928Z,6.35
2023-05-19T06:24:23.538Z,10.95
2023-05-19T06:28:36.133Z,11.05
2023-05-19T06:32:48.763Z,10.90
2023-05-19T06:37:02.701Z,5.38
2023-05-19T06:41:16.877Z,6.45
2023-05-19T06:45:29.585Z,11.88
2023-05-19T06:49:43.439Z,3.88
2023-05-19T06:53:55.909Z,8.60
2023-05-19T06:58:09.332Z,12.38
2023-05-19T07:02:21.828Z,5.90
2023-05-19T07:06:35.286Z,7.78
2023-05-19T07:10:48.269Z,7.07
2023-05-19T07:15:02.541Z,5.53
2023-05-19T07:19:15.377Z,8.48
2023-05-19T07:23:29.997Z,4.15
2023-05-19T07:27:42.390Z,5.13
2023-05-19T07:31:58.212Z,3.13
2023-05-19T07:36:10.798Z,2.65
2023-05-19T07:40:23.257Z,3.28
2023-05-19T07:44:35.678Z,3.75
2023-05-19T07:48:48.349Z,3.25
2023-05-19T07:53:00.720Z,6.63
2023-05-19T07:57:14.799Z,7.07
2023-05-19T08:01:27.331Z,12.57
2023-05-19T08:05:39.745Z,8.57
2023-05-19T08:09:52.246Z,8.82
2023-05-19T08:14:04.701Z,7.82
2023-05-19T08:18:17.054Z,4.35
2023-05-19T08:22:29.429Z,4.60
2023-05-19T08:26:42.079Z,4.30
2023-05-19T08:30:54.604Z,5.20
2023-05-19T08:35:07.926Z,4.70
2023-05-19T08:39:24.548Z,6.72
2023-05-19T08:43:37.399Z,8.35
2023-05-19T08:47:51.789Z,5.03
2023-05-19T08:52:36.073Z,12.05
2023-05-19T08:56:49.207Z,4.90
2023-05-19T09:01:04.507Z,6.68
2023-05-19T09:05:20.977Z,5.13
2023-05-19T09:09:33.483Z,7.07
2023-05-19T09:13:46.358Z,13.27
2023-05-19T09:18:17.687Z,15.27
2023-05-19T09:22:30.950Z,9.82
2023-05-19T09:26:43.820Z,5.75
2023-05-19T09:31:02.458Z,6.60
2023-05-19T09:35:17.524Z,10.75
2023-05-19T09:39:30.758Z,6.95
2023-05-19T09:43:43.182Z,7.53
2023-05-19T09:47:55.575Z,7.32
2023-05-19T09:52:10.066Z,12.43
2023-05-19T09:56:26.402Z,6.32
2023-05-19T10:00:39.695Z,7.57
2023-05-19T10:04:53.832Z,7.03
2023-05-19T10:09:06.748Z,6.65
2023-05-19T10:13:20.237Z,5.63
2023-05-19T10:17:34.696Z,4.45
2023-05-19T10:21:47.485Z,5.40
2023-05-19T10:26:02.296Z,10.35
2023-05-19T10:30:19.382Z,4.35
2023-05-19T10:34:59.491Z,6.55
2023-05-19T10:39:25.402Z,5.40
2023-05-19T10:44:22.305Z,6.97
2023-05-19T10:48:36.914Z,10.23
2023-05-19T10:52:58.642Z,5.95
2023-05-19T10:57:17.897Z,6.03
2023-05-19T11:01:33.549Z,5.45
2023-05-19T11:05:46.764Z,2.53
2023-05-19T11:09:59.136Z,6.93
2023-05-19T11:14:14.974Z,7.43
2023-05-19T11:18:27.415Z,6.60
2023-05-19T11:22:40.678Z,5.93
2023-05-19T11:26:55.310Z,4.55
2023-05-19T11:31:10.555Z,6.75
2023-05-19T11:35:24.649Z,4.15
2023-05-19T11:39:37.502Z,5.40
2023-05-19T11:43:50.002Z,6.38
2023-05-19T11:48:07.191Z,7.57
2023-05-19T11:52:23.303Z,10.85
2023-05-19T11:56:41.016Z,13.90
2023-05-19T12:00:54.517Z,12.45
2023-05-19T12:05:07.264Z,6.00
2023-05-19T12:09:22.716Z,9.25
2023-05-19T12:13:36.116Z,11.43
2023-05-19T12:17:56.942Z,7.20
2023-05-19T12:22:10.181Z,9.23
2023-05-19T12:26:23.028Z,5.15
2023-05-19T12:30:35.779Z,4.55
2023-05-19T12:34:48.482Z,10.93
2023-05-19T12:39:01.027Z,5.97
2023-05-19T12:43:23.441Z,11.52
2023-05-19T12:47:36.738Z,9.35
2023-05-19T12:51:53.777Z,8.75
2023-05-19T12:56:16.742Z,7.13
2023-05-19T13:00:31.318Z,3.97
2023-05-19T13:04:44.858Z,6.72
2023-05-19T13:08:57.484Z,9.63
2023-05-19T13:13:10.629Z,7.78
2023-05-19T13:17:24.121Z,8.50
2023-05-19T13:21:38.232Z,6.95
2023-05-19T13:25:51.783Z,6.28
2023-05-19T13:30:05.659Z,14.32
2023-05-19T13:34:20.271Z,11.35
2023-05-19T13:38:32.677Z,10.32
2023-05-19T13:42:45.718Z,10.00
2023-05-19T13:46:58.198Z,6.22
2023-05-19T13:51:10.710Z,12.05
2023-05-19T13:55:23.940Z,11.02
2023-05-19T13:59:45.711Z,11.25
2023-05-19T14:08:19.213Z,8.07
2023-05-19T14:12:41.504Z,8.65
2023-05-19T14:16:59.843Z,13.35
2023-05-19T14:21:12.505Z,7.57
2023-05-19T14:25:24.917Z,13.30
2023-05-19T14:29:37.347Z,11.85
2023-05-19T14:33:49.842Z,10.45
2023-05-19T14:38:02.322Z,9.77
2023-05-19T14:42:15.007Z,14.43
2023-05-19T14:46:27.500Z,9.52
2023-05-19T14:50:39.981Z,11.15
2023-05-19T14:54:52.488Z,12.55
2023-05-19T14:59:05.191Z,11.35
2023-05-19T15:03:17.685Z,9.10
2023-05-19T15:07:30.219Z,6.72
2023-05-19T15:11:42.630Z,10.15
2023-05-19T15:16:08.445Z,12.10
2023-05-19T15:20:29.579Z,9.45
2023-05-19T15:24:42.178Z,9.00
2023-05-19T15:28:54.777Z,10.18
2023-05-19T15:33:07.402Z,13.10
2023-05-19T15:37:19.914Z,8.52
2023-05-19T15:41:32.376Z,15.55
2023-05-19T15:45:45.171Z,13.13
2023-05-19T15:49:57.697Z,8.65
2023-05-19T15:54:10.525Z,11.73
2023-05-19T15:58:22.987Z,13.05
2023-05-19T16:02:36.278Z,12.40
2023-05-19T16:06:48.792Z,12.35
2023-05-19T16:11:01.370Z,10.90
2023-05-19T16:15:13.786Z,9.80
2023-05-19T16:19:27.145Z,12.70
2023-05-19T16:23:39.718Z,9.73
2023-05-19T16:27:52.936Z,10.77
2023-05-19T16:32:05.920Z,9.43
2023-05-19T16:36:18.604Z,10.40
2023-05-19T16:40:31.235Z,8.88
2023-05-19T16:44:43.824Z,12.88
2023-05-19T16:48:56.461Z,8.65
2023-05-19T16:53:09.084Z,11.27
2023-05-19T16:57:21.636Z,9.57
2023-05-19T17:01:34.308Z,14.35
2023-05-19T17:05:46.875Z,13.25
2023-05-19T17:09:59.614Z,8.50
2023-05-19T17:14:12.282Z,13.43
2023-05-19T17:18:24.866Z,12.02
2023-05-19T17:22:37.430Z,12.05
2023-05-19T17:26:49.833Z,13.35
2023-05-19T17:31:02.336Z,17.77
2023-05-19T17:35:14.976Z,14.10
2023-05-19T17:39:27.403Z,13.20
2023-05-19T17:43:41.326Z,12.40
2023-05-19T17:47:53.933Z,15.30
2023-05-19T17:52:07.176Z,10.50
2023-05-19T17:56:22.813Z,17.65
2023-05-19T18:00:35.689Z,12.00
2023-05-19T18:04:48.485Z,14.13
2023-05-19T18:09:02.903Z,15.63
2023-05-19T18:13:15.483Z,19.35
2023-05-19T18:17:27.987Z,16.75
2023-05-19T18:21:40.545Z,15.40
2023-05-19T18:25:53.804Z,15.15
2023-05-19T18:30:07.108Z,18.45
2023-05-19T18:34:19.540Z,16.40
2023-05-19T18:38:31.996Z,15.13
2023-05-19T18:42:44.667Z,21.02
2023-05-19T18:46:57.090Z,24.48
2023-05-19T18:51:10.087Z,21.98
2023-05-19T18:55:23.315Z,18.65
2023-05-19T18:59:35.932Z,19.45
2023-05-19T19:03:50.757Z,16.73
2023-05-19T19:08:05.830Z,15.45
2023-05-19T19:12:19.080Z,12.20
2023-05-19T19:16:32.871Z,13.63
2023-05-19T19:20:45.651Z,19.90
2023-05-19T19:24:58.004Z,12.50
2023-05-19T19:29:10.413Z,9.95
2023-05-19T19:33:22.838Z,11.88
2023-05-19T19:37:35.382Z,12.48
2023-05-19T19:41:47.861Z,15.63
2023-05-19T19:46:01.679Z,15.63
2023-05-19T19:50:14.487Z,19.20
2023-05-19T19:54:27.689Z,21.25
2023-05-19T19:58:43.202Z,25.90
2023-05-19T20:03:05.001Z,22.10
2023-05-19T20:07:21.240Z,22.50
2023-05-19T20:11:33.782Z,32.00
2023-05-19T20:15:47.500Z,20.00
2023-05-19T20:20:02.533Z,19.73
2023-05-19T20:24:14.871Z,17.30
2023-05-19T20:28:27.385Z,17.67
2023-05-19T20:32:40.401Z,25.05
2023-05-19T20:36:52.937Z,27.35
2023-05-19T20:41:05.484Z,26.83
2023-05-19T20:45:18.720Z,28.38
2023-05-19T20:49:31.295Z,21.02
2023-05-19T20:53:43.820Z,23.08
2023-05-19T20:57:56.362Z,23.02
2023-05-19T21:02:08.754Z,17.38
2023-05-19T21:06:21.330Z,18.67
2023-05-19T21:10:34.012Z,19.77
2023-05-19T21:14:46.536Z,16.40
2023-05-19T21:18:59.002Z,18.60
2023-05-19T21:23:11.531Z,17.80
2023-05-19T21:27:24.125Z,16.35
2023-05-19T21:31:37.084Z,24.13
2023-05-19T21:35:49.535Z,17.92
2023-05-19T21:40:02.062Z,13.68
2023-05-19T21:44:14.551Z,19.77
2023-05-19T21:48:26.876Z,15.98
2023-05-19T21:52:39.288Z,20.38
2023-05-19T21:56:51.788Z,21.00
2023-05-19T22:01:04.849Z,20.48
2023-05-19T22:05:17.627Z,23.13
2023-05-19T22:09:30.013Z,23.42
2023-05-19T22:13:42.408Z,16.10
2023-05-19T22:17:54.779Z,17.95
2023-05-19T22:22:13.847Z,19.17
2023-05-19T22:30:41.049Z,15.73
2023-05-19T22:34:53.725Z,17.63
2023-05-19T22:39:06.347Z,16.13
2023-05-19T22:43:18.760Z,17.33
2023-05-19T22:47:31.269Z,14.75
2023-05-19T22:51:43.685Z,17.83
2023-05-19T22:55:56.418Z,20.20
2023-05-19T23:00:10.023Z,14.05
2023-05-19T23:04:22.883Z,15.02
2023-05-19T23:08:35.392Z,16.98
2023-05-19T23:12:47.839Z,11.95
2023-05-19T23:17:00.361Z,16.13
2023-05-19T23:21:12.967Z,19.08
2023-05-19T23:25:25.463Z,17.50
2023-05-19T23:29:38.006Z,21.42
2023-05-19T23:33:50.505Z,16.27
2023-05-19T23:38:04.068Z,18.83
2023-05-19T23:42:16.578Z,24.23
2023-05-19T23:46:29.059Z,19.30
2023-05-19T23:50:41.593Z,20.20
2023-05-19T23:54:53.940Z,27.48
2023-05-19T23:59:06.392Z,22.45
